• Join FlightAware (Why Join?)
  • Login
  • US Flag 
07:09AM EDT


 

Airport Tracker/Info


-or-


 

Live Flight TrackerFlight Track Log ✈ SWA896 ✈ 14-Sep-2013 ✈ KTPA - KBWI

Flight Track Log - Related Links

Times and Time Zones

All times are in EDT time to prevent confusion due to time zone crossing. See the SWA896 flight status page for this flight to view local times or setup timezone preferences in your user account.

Time Position Orientation Groundspeed Altitude Reporting Facility
EDT Latitude Longitude Course Direction KTS MPH feet Rate Location/Type
11:56AM 27.9667 -82.5500 180° South 185 213 700  Level Tampa TRACON
11:56AM 27.9500 -82.5500 180° South 187 215 1,000 2,040 Climbing Tampa TRACON
11:57AM 27.9000 -82.5667 196° South 210 242 3,000 2,820 Climbing Tampa TRACON
11:58AM 27.8667 -82.6167 233° Southwest 232 267 6,700 2,880 Climbing Tampa TRACON
12:00PM 27.9786 -82.6317 353° North 265 305 11,000 2,520 Climbing Jacksonville Center
12:01PM 28.0725 -82.6197 North 302 348 13,600 2,760 Climbing Jacksonville Center
12:02PM 28.1747 -82.6053 North 340 391 16,600 2,760 Climbing Jacksonville Center
12:03PM 28.2831 -82.5933 North 371 427 19,200 2,520 Climbing Jacksonville Center
12:04PM 28.3978 -82.5858 North 393 452 21,700 2,400 Climbing Jacksonville Center
12:05PM 28.5169 -82.5856 360° North 406 467 24,100 2,340 Climbing Jacksonville Center
12:06PM 28.6336 -82.5897 358° North 411 473 26,400 2,100 Climbing Jacksonville Center
12:07PM 28.7631 -82.6014 355° North 418 481 28,300 1,620 Climbing Jacksonville Center
12:08PM 28.8864 -82.6200 352° North 431 496 29,700 1,320 Climbing Jacksonville Center
12:09PM 29.0158 -82.6361 354° North 446 513 31,000 1,080 Climbing Jacksonville Center
12:10PM 29.1453 -82.6547 353° North 457 526 31,900 480 Climbing Jacksonville Center
12:11PM 29.2683 -82.6331 North 451 519 32,000  Climbing Jacksonville Center
12:12PM 29.3894 -82.5900 17° North 451 519 32,000  Level Jacksonville Center
12:13PM 29.5019 -82.5514 17° North 456 525 32,000 480 Level Jacksonville Center
12:14PM 29.6292 -82.5128 15° North 456 525 33,000 1,440 Climbing Jacksonville Center
12:15PM 29.7522 -82.4692 17° North 456 525 34,900 1,680 Climbing Jacksonville Center
12:16PM 29.8772 -82.4303 15° North 456 525 36,400 1,320 Climbing Jacksonville Center
12:17PM 30.0003 -82.3889 16° North 456 525 37,600 1,260 Climbing Jacksonville Center
12:18PM 30.1214 -82.3522 15° North 451 519 39,000 660 Climbing Jacksonville Center
12:19PM 30.2400 -82.3083 18° North 451 519 39,000  Level Jacksonville Center
12:20PM 30.3611 -82.2667 17° North 451 519 39,000  Level Jacksonville Center
12:21PM 30.4797 -82.2272 16° North 446 513 39,000  Level Jacksonville Center
12:22PM 30.5986 -82.1950 13° North 441 507 39,000  Level Jacksonville Center
12:23PM 30.7175 -82.1531 17° North 436 502 39,000  Level Jacksonville Center
12:24PM 30.8342 -82.1136 16° North 431 496 39,000  Level Jacksonville Center
12:25PM 30.9550 -82.0714 17° North 436 502 39,000  Level Jacksonville Center
12:26PM 31.0736 -82.0339 15° North 436 502 39,000  Level Jacksonville Center
12:27PM 31.1944 -81.9917 17° North 436 502 39,000  Level Jacksonville Center
12:28PM 31.3153 -81.9514 16° North 436 502 39,000  Level Jacksonville Center
12:29PM 31.4300 -81.9089 18° North 427 491 39,000  Level Jacksonville Center
12:30PM 31.5631 -81.8661 15° North 437 503 39,000  Level Jacksonville Center
12:31PM 31.6797 -81.8258 16° North 443 510 39,000  Level Jacksonville Center
12:32PM 31.8025 -81.7853 16° North 441 507 39,000  Level Jacksonville Center
12:33PM 31.9089 -81.7497 16° North 446 513 39,000  Level Jacksonville Center
12:34PM 32.0336 -81.7089 16° North 455 524 39,000  Level Jacksonville Center
12:35PM 32.1606 -81.6581 19° North 441 507 39,000  Level Jacksonville Center
12:36PM 32.2792 -81.6147 17° North 434 499 39,000  Level Jacksonville Center
12:37PM 32.3786 -81.5544 27° Northeast 440 506 39,000  Level Jacksonville Center
12:38PM 32.4967 -81.4739 30° Northeast 450 518 39,000  Level Jacksonville Center
12:39PM 32.6044 -81.4006 30° Northeast 445 512 39,000  Level Jacksonville Center
12:40PM 32.7039 -81.3322 30° Northeast 445 512 39,000  Level Jacksonville Center
12:41PM 32.8136 -81.2561 30° Northeast 445 512 39,000  Level Jacksonville Center
12:42PM 32.9231 -81.1800 30° Northeast 445 512 39,000  Level Jacksonville Center
12:43PM 33.0328 -81.1061 29° Northeast 440 506 39,000  Level Jacksonville Center
12:44PM 33.1403 -81.0344 29° Northeast 440 506 39,000  Level Jacksonville Center
12:45PM 33.2497 -80.9578 30° Northeast 440 506 39,000  Level Jacksonville Center
12:46PM 33.3572 -80.8833 30° Northeast 440 506 39,000  Level Jacksonville Center
12:47PM 33.4769 -80.8033 29° Northeast 440 506 39,000  Level Jacksonville Center
12:48PM 33.5861 -80.7236 31° Northeast 440 506 39,000  Level Jacksonville Center
12:49PM 33.6975 -80.6483 29° Northeast 440 506 39,000  Level Jacksonville Center
12:50PM 33.8067 -80.5731 30° Northeast 445 512 39,000  Level Jacksonville Center
12:52PM 34.0136 -80.4244 31° Northeast 453 521 39,000  Level Washington Center
12:53PM 34.1186 -80.3528 29° Northeast 458 527 39,000  Level Washington Center
12:54PM 34.2303 -80.2739 30° Northeast 453 521 39,000  Level Washington Center
12:55PM 34.3378 -80.1919 32° Northeast 453 521 39,000  Level Washington Center
12:56PM 34.4472 -80.1175 29° Northeast 453 521 39,000  Level Washington Center
12:57PM 34.5544 -80.0403 31° Northeast 453 521 39,000  Level Washington Center
12:58PM 34.6572 -79.9675 30° Northeast 458 527 39,000  Level Washington Center
12:59PM 34.7642 -79.8897 31° Northeast 458 527 39,000  Level Washington Center
01:00PM 34.8692 -79.8144 30° Northeast 458 527 39,000  Level Washington Center
01:01PM 34.9786 -79.7339 31° Northeast 453 521 39,000  Level Washington Center
01:02PM 35.0811 -79.6606 30° Northeast 448 516 39,000  Level Washington Center
01:03PM 35.1861 -79.5769 33° Northeast 448 516 39,000  Level Washington Center
01:04PM 35.2794 -79.4722 42° Northeast 443 510 39,000  Level Washington Center
01:05PM 35.3833 -79.3522 43° Northeast 454 522 39,000  Level Washington Center
01:06PM 35.4742 -79.2494 43° Northeast 454 522 39,000  Level Washington Center
01:07PM 35.5672 -79.1439 43° Northeast 454 522 39,000  Level Washington Center
01:08PM 35.6578 -79.0381 44° Northeast 449 517 39,000  Level Washington Center
01:09PM 35.7506 -78.9344 42° Northeast 449 517 39,000  Level Washington Center
01:10PM 35.8433 -78.8231 44° Northeast 449 517 39,000  Level Washington Center
01:11PM 35.9397 -78.7294 38° Northeast 449 517 39,000 -360 Level Washington Center
01:12PM 36.0422 -78.6386 36° Northeast 449 517 38,300 -1,620 Descending Washington Center
01:13PM 36.1444 -78.5500 35° Northeast 449 517 35,800 -2,700 Descending Washington Center
01:14PM 36.2447 -78.4611 36° Northeast 449 517 33,000 -2,520 Descending Washington Center
01:15PM 36.3428 -78.3744 35° Northeast 439 505 30,800 -1,980 Descending Washington Center
01:16PM 36.4344 -78.2925 36° Northeast 425 489 29,000 -900 Descending Washington Center
01:17PM 36.5261 -78.2103 36° Northeast 418 481 29,000 -300 Level Washington Center
01:18PM 36.6089 -78.1328 37° Northeast 418 481 28,500 -720 Descending Washington Center
01:19PM 36.7047 -78.0453 36° Northeast 413 475 27,600 -1,020 Descending Washington Center
01:20PM 36.8003 -77.9603 35° Northeast 413 475 26,500 -1,140 Descending Washington Center
01:21PM 36.8917 -77.8772 36° Northeast 413 475 25,400 -1,080 Descending Washington Center
01:22PM 36.9808 -77.7992 35° Northeast 408 470 24,400 -1,020 Descending Washington Center
01:23PM 37.0839 -77.7475 22° Northeast 394 453 23,400 -720 Descending Washington Center
01:24PM 37.1847 -77.7033 19° North 384 442 23,000 -240 Descending Washington Center
01:25PM 37.2836 -77.6592 20° North 384 442 23,000  Level Washington Center
01:26PM 37.3844 -77.6122 20° North 379 436 23,000  Level Washington Center
01:27PM 37.4856 -77.5653 20° North 379 436 23,000  Level Washington Center
01:28PM 37.5842 -77.5181 21° North 379 436 23,000  Level Washington Center
01:29PM 37.6831 -77.4706 21° North 379 436 23,000  Level Washington Center
01:30PM 37.7839 -77.4233 20° North 374 430 23,000  Level Washington Center
01:31PM 37.8806 -77.3781 20° North 374 430 23,000  Level Washington Center
01:32PM 37.9772 -77.3306 21° North 374 430 23,000 -780 Level Washington Center
01:33PM 38.0822 -77.2828 20° North 368 423 21,500 -1,800 Descending Washington Center
01:34PM 38.1786 -77.2375 20° North 368 423 19,500 -1,980 Descending Washington Center
01:35PM 38.2689 -77.1944 21° North 363 418 17,600 -2,100 Descending Washington Center
01:36PM 38.3611 -77.1486 21° North 358 412 15,300 -1,740 Descending Washington Center
01:37PM 38.4353 -77.0733 38° Northeast 343 395 14,200 -1,620 Descending Washington Center
01:38PM 38.5050 -76.9897 43° Northeast 331 381 12,200 -1,320 Descending Washington Center
01:39PM 38.5683 -76.9114 44° Northeast 321 369 11,600 -1,020 Descending Washington Center
01:40PM 38.6339 -76.8356 42° Northeast 316 364 10,200 -1,320 Descending Washington Center
01:41PM 38.6931 -76.7619 44° Northeast 301 346 9,100 -1,140 Descending Washington Center
01:44PM 38.7833 -76.5500 61° Northeast 280 322 6,400 -1,260 Descending Potomac TRACON
01:45PM 38.8500 -76.5333 11° North 271 312 5,100 -1,260 Descending Potomac TRACON
01:46PM 38.9167 -76.5500 349° North 252 290 4,000 -900 Descending Potomac TRACON
01:47PM 38.9833 -76.5500 360° North 224 258 3,300 -720 Descending Potomac TRACON
01:48PM 39.0500 -76.5833 339° North 210 242 2,600 -780 Descending Potomac TRACON
01:49PM 39.0833 -76.6000 339° North 183 211 1,800 -900 Descending Potomac TRACON
01:50PM 39.1333 -76.6333 333° Northwest 139 160 900 -900 Descending Potomac TRACON
01:52PM 39.1667 -76.6667 339° North  Level FlightAware Approximate
01:59PM 39.1754 -76.6683 339° North  Level Estimated
02:00PM 39.1754 -76.6683 339° North  Level Estimated
02:01PM 39.1754 -76.6683 339° North  Level Estimated
02:02PM 39.1754 -76.6683 339° North  Level Estimated
02:03PM 39.1754 -76.6683 339° North  Level Estimated
02:04PM 39.1754 -76.6683 339° North  Level Estimated